sensor_id;sensor_type;location;lat;lon;timestamp;temperature;humidity
49184;DHT22;35021;49.214;12.270;2022-08-21T00:01:42;23.10;66.60
49184;DHT22;35021;49.214;12.270;2022-08-21T00:04:10;23.10;66.50
49184;DHT22;35021;49.214;12.270;2022-08-21T00:06:40;23.10;67.10
49184;DHT22;35021;49.214;12.270;2022-08-21T00:09:08;23.10;66.40
49184;DHT22;35021;49.214;12.270;2022-08-21T00:11:37;23.10;66.40
49184;DHT22;35021;49.214;12.270;2022-08-21T00:14:06;23.10;66.40
49184;DHT22;35021;49.214;12.270;2022-08-21T00:16:34;23.10;66.30
49184;DHT22;35021;49.214;12.270;2022-08-21T00:19:01;23.10;66.90
49184;DHT22;35021;49.214;12.270;2022-08-21T00:21:28;23.10;66.30
49184;DHT22;35021;49.214;12.270;2022-08-21T00:23:56;23.10;66.20
49184;DHT22;35021;49.214;12.270;2022-08-21T00:26:23;23.10;66.20
49184;DHT22;35021;49.214;12.270;2022-08-21T00:28:50;23.10;66.20
49184;DHT22;35021;49.214;12.270;2022-08-21T00:31:17;23.10;66.20
49184;DHT22;35021;49.214;12.270;2022-08-21T00:33:45;23.10;66.10
49184;DHT22;35021;49.214;12.270;2022-08-21T00:36:13;23.10;66.10
49184;DHT22;35021;49.214;12.270;2022-08-21T00:38:40;23.10;66.10
49184;DHT22;35021;49.214;12.270;2022-08-21T00:41:09;23.10;66.00
49184;DHT22;35021;49.214;12.270;2022-08-21T00:43:57;23.10;66.00
49184;DHT22;35021;49.214;12.270;2022-08-21T00:46:24;23.00;66.00
49184;DHT22;35021;49.214;12.270;2022-08-21T00:48:54;23.00;66.00
49184;DHT22;35021;49.214;12.270;2022-08-21T00:51:53;23.00;66.10
49184;DHT22;35021;49.214;12.270;2022-08-21T00:54:23;23.00;66.10
49184;DHT22;35021;49.214;12.270;2022-08-21T00:56:55;22.90;66.10
49184;DHT22;35021;49.214;12.270;2022-08-21T00:59:26;22.90;66.10
49184;DHT22;35021;49.214;12.270;2022-08-21T01:01:54;22.90;66.10
49184;DHT22;35021;49.214;12.270;2022-08-21T01:04:22;22.90;66.10
49184;DHT22;35021;49.214;12.270;2022-08-21T01:06:49;22.90;66.20
49184;DHT22;35021;49.214;12.270;2022-08-21T01:09:18;22.90;66.10
49184;DHT22;35021;49.214;12.270;2022-08-21T01:11:47;22.90;66.10
49184;DHT22;35021;49.214;12.270;2022-08-21T01:14:14;22.90;66.10
49184;DHT22;35021;49.214;12.270;2022-08-21T01:16:44;22.90;66.10
49184;DHT22;35021;49.214;12.270;2022-08-21T01:19:13;22.90;66.10
49184;DHT22;35021;49.214;12.270;2022-08-21T01:21:41;22.90;66.10
49184;DHT22;35021;49.214;12.270;2022-08-21T01:24:10;22.90;66.10
49184;DHT22;35021;49.214;12.270;2022-08-21T01:26:37;22.90;66.10
49184;DHT22;35021;49.214;12.270;2022-08-21T01:31:39;22.90;66.10
49184;DHT22;35021;49.214;12.270;2022-08-21T01:34:06;22.90;66.10
49184;DHT22;35021;49.214;12.270;2022-08-21T01:36:34;22.90;66.10
49184;DHT22;35021;49.214;12.270;2022-08-21T01:39:02;22.90;66.10
49184;DHT22;35021;49.214;12.270;2022-08-21T01:41:29;22.90;66.10
49184;DHT22;35021;49.214;12.270;2022-08-21T01:43:56;22.90;66.00
49184;DHT22;35021;49.214;12.270;2022-08-21T01:46:23;22.90;66.00
49184;DHT22;35021;49.214;12.270;2022-08-21T01:48:50;22.90;66.00
49184;DHT22;35021;49.214;12.270;2022-08-21T01:51:17;22.90;66.70
49184;DHT22;35021;49.214;12.270;2022-08-21T01:53:44;22.90;66.00
49184;DHT22;35021;49.214;12.270;2022-08-21T01:56:15;22.90;65.90
49184;DHT22;35021;49.214;12.270;2022-08-21T01:58:45;22.90;65.90
49184;DHT22;35021;49.214;12.270;2022-08-21T02:01:13;22.90;65.90
49184;DHT22;35021;49.214;12.270;2022-08-21T02:03:41;22.90;65.90
49184;DHT22;35021;49.214;12.270;2022-08-21T02:06:13;22.90;65.90
49184;DHT22;35021;49.214;12.270;2022-08-21T02:08:41;22.90;65.90
49184;DHT22;35021;49.214;12.270;2022-08-21T02:11:08;22.90;65.80
49184;DHT22;35021;49.214;12.270;2022-08-21T02:13:35;22.90;65.80
49184;DHT22;35021;49.214;12.270;2022-08-21T02:16:02;22.90;65.80
49184;DHT22;35021;49.214;12.270;2022-08-21T02:18:29;22.90;65.80
49184;DHT22;35021;49.214;12.270;2022-08-21T02:20:56;22.90;65.70
49184;DHT22;35021;49.214;12.270;2022-08-21T02:23:24;22.90;65.70
49184;DHT22;35021;49.214;12.270;2022-08-21T02:26:01;22.90;65.70
49184;DHT22;35021;49.214;12.270;2022-08-21T02:28:29;22.90;65.70
49184;DHT22;35021;49.214;12.270;2022-08-21T02:30:56;23.00;65.70
49184;DHT22;35021;49.214;12.270;2022-08-21T02:33:24;22.90;65.60
49184;DHT22;35021;49.214;12.270;2022-08-21T02:35:51;22.90;65.60
49184;DHT22;35021;49.214;12.270;2022-08-21T02:38:25;22.90;65.50
49184;DHT22;35021;49.214;12.270;2022-08-21T02:40:56;22.90;65.60
49184;DHT22;35021;49.214;12.270;2022-08-21T02:43:25;22.90;65.70
49184;DHT22;35021;49.214;12.270;2022-08-21T02:45:54;22.80;65.80
49184;DHT22;35021;49.214;12.270;2022-08-21T02:48:24;22.80;65.90
49184;DHT22;35021;49.214;12.270;2022-08-21T02:50:58;22.80;66.00
49184;DHT22;35021;49.214;12.270;2022-08-21T02:53:26;22.70;66.00
49184;DHT22;35021;49.214;12.270;2022-08-21T02:55:53;22.70;66.00
49184;DHT22;35021;49.214;12.270;2022-08-21T02:58:24;22.70;66.10
49184;DHT22;35021;49.214;12.270;2022-08-21T03:00:52;22.70;66.10
49184;DHT22;35021;49.214;12.270;2022-08-21T03:03:19;22.70;66.10
49184;DHT22;35021;49.214;12.270;2022-08-21T03:05:48;22.70;66.10
49184;DHT22;35021;49.214;12.270;2022-08-21T03:08:15;22.70;66.10
49184;DHT22;35021;49.214;12.270;2022-08-21T03:10:46;22.70;66.10
49184;DHT22;35021;49.214;12.270;2022-08-21T03:13:14;22.70;66.00
49184;DHT22;35021;49.214;12.270;2022-08-21T03:15:42;22.70;66.00
49184;DHT22;35021;49.214;12.270;2022-08-21T03:18:11;22.70;66.10
49184;DHT22;35021;49.214;12.270;2022-08-21T03:20:39;22.70;66.10
49184;DHT22;35021;49.214;12.270;2022-08-21T03:23:06;22.60;66.10
49184;DHT22;35021;49.214;12.270;2022-08-21T03:25:41;22.60;66.10
49184;DHT22;35021;49.214;12.270;2022-08-21T03:28:13;22.60;66.20
49184;DHT22;35021;49.214;12.270;2022-08-21T03:30:44;22.60;66.20
49184;DHT22;35021;49.214;12.270;2022-08-21T03:33:12;22.70;66.20
49184;DHT22;35021;49.214;12.270;2022-08-21T03:35:46;22.60;66.10
49184;DHT22;35021;49.214;12.270;2022-08-21T03:38:13;22.60;66.10
49184;DHT22;35021;49.214;12.270;2022-08-21T03:40:42;22.70;66.20
49184;DHT22;35021;49.214;12.270;2022-08-21T03:43:09;22.60;66.10
49184;DHT22;35021;49.214;12.270;2022-08-21T03:45:37;22.70;66.20
49184;DHT22;35021;49.214;12.270;2022-08-21T03:48:06;22.70;66.20
49184;DHT22;35021;49.214;12.270;2022-08-21T03:50:35;22.70;66.10
49184;DHT22;35021;49.214;12.270;2022-08-21T03:53:08;22.70;66.10
49184;DHT22;35021;49.214;12.270;2022-08-21T03:55:48;22.70;66.10
49184;DHT22;35021;49.214;12.270;2022-08-21T03:58:17;22.70;66.10
49184;DHT22;35021;49.214;12.270;2022-08-21T04:00:46;22.70;66.10
49184;DHT22;35021;49.214;12.270;2022-08-21T04:03:13;22.70;66.10
49184;DHT22;35021;49.214;12.270;2022-08-21T04:05:41;22.70;66.10
49184;DHT22;35021;49.214;12.270;2022-08-21T04:08:09;22.70;66.80
49184;DHT22;35021;49.214;12.270;2022-08-21T04:10:37;22.70;66.10
49184;DHT22;35021;49.214;12.270;2022-08-21T04:13:05;22.70;66.10
49184;DHT22;35021;49.214;12.270;2022-08-21T04:15:33;22.70;66.10
49184;DHT22;35021;49.214;12.270;2022-08-21T04:18:00;22.70;66.10
49184;DHT22;35021;49.214;12.270;2022-08-21T04:20:28;22.70;66.10
49184;DHT22;35021;49.214;12.270;2022-08-21T04:22:55;22.70;66.10
49184;DHT22;35021;49.214;12.270;2022-08-21T04:25:23;22.70;66.00
49184;DHT22;35021;49.214;12.270;2022-08-21T04:27:52;22.80;66.10
49184;DHT22;35021;49.214;12.270;2022-08-21T04:30:19;22.80;66.10
49184;DHT22;35021;49.214;12.270;2022-08-21T04:32:48;22.80;66.00
49184;DHT22;35021;49.214;12.270;2022-08-21T04:35:19;22.80;66.00
49184;DHT22;35021;49.214;12.270;2022-08-21T04:37:46;22.80;66.00
49184;DHT22;35021;49.214;12.270;2022-08-21T04:40:16;22.80;66.00
49184;DHT22;35021;49.214;12.270;2022-08-21T04:42:49;22.80;66.00
49184;DHT22;35021;49.214;12.270;2022-08-21T04:45:24;22.80;66.00
49184;DHT22;35021;49.214;12.270;2022-08-21T04:47:53;22.80;66.00
49184;DHT22;35021;49.214;12.270;2022-08-21T04:50:45;22.80;65.90
49184;DHT22;35021;49.214;12.270;2022-08-21T04:53:19;22.80;65.90
49184;DHT22;35021;49.214;12.270;2022-08-21T04:55:47;22.70;65.80
49184;DHT22;35021;49.214;12.270;2022-08-21T04:58:17;22.80;66.00
49184;DHT22;35021;49.214;12.270;2022-08-21T05:00:46;22.70;66.00
49184;DHT22;35021;49.214;12.270;2022-08-21T05:03:14;22.70;66.10
49184;DHT22;35021;49.214;12.270;2022-08-21T05:05:42;22.70;66.20
49184;DHT22;35021;49.214;12.270;2022-08-21T05:08:12;22.60;66.30
49184;DHT22;35021;49.214;12.270;2022-08-21T05:10:40;22.60;66.40
49184;DHT22;35021;49.214;12.270;2022-08-21T05:13:07;22.60;66.50
49184;DHT22;35021;49.214;12.270;2022-08-21T05:15:34;22.60;66.50
49184;DHT22;35021;49.214;12.270;2022-08-21T05:18:00;22.60;66.60
49184;DHT22;35021;49.214;12.270;2022-08-21T05:20:28;22.60;66.60
49184;DHT22;35021;49.214;12.270;2022-08-21T05:22:55;22.60;66.60
49184;DHT22;35021;49.214;12.270;2022-08-21T05:25:22;22.60;66.60
49184;DHT22;35021;49.214;12.270;2022-08-21T05:27:50;22.60;66.60
49184;DHT22;35021;49.214;12.270;2022-08-21T05:30:19;22.60;66.60
49184;DHT22;35021;49.214;12.270;2022-08-21T05:32:47;22.60;66.60
49184;DHT22;35021;49.214;12.270;2022-08-21T05:35:14;22.60;66.50
49184;DHT22;35021;49.214;12.270;2022-08-21T05:37:41;22.60;66.50
49184;DHT22;35021;49.214;12.270;2022-08-21T05:40:09;22.60;66.40
49184;DHT22;35021;49.214;12.270;2022-08-21T05:42:52;22.60;66.40
49184;DHT22;35021;49.214;12.270;2022-08-21T05:45:23;22.60;66.50
49184;DHT22;35021;49.214;12.270;2022-08-21T05:48:12;22.60;66.60
49184;DHT22;35021;49.214;12.270;2022-08-21T05:50:41;22.60;66.60
49184;DHT22;35021;49.214;12.270;2022-08-21T05:53:08;22.50;66.60
49184;DHT22;35021;49.214;12.270;2022-08-21T05:55:36;22.50;66.60
49184;DHT22;35021;49.214;12.270;2022-08-21T05:58:12;22.50;66.70
49184;DHT22;35021;49.214;12.270;2022-08-21T06:00:40;22.60;66.70
49184;DHT22;35021;49.214;12.270;2022-08-21T06:03:12;22.60;66.70
49184;DHT22;35021;49.214;12.270;2022-08-21T06:05:39;22.60;66.70
49184;DHT22;35021;49.214;12.270;2022-08-21T06:08:06;22.60;66.70
49184;DHT22;35021;49.214;12.270;2022-08-21T06:10:33;22.60;66.70
49184;DHT22;35021;49.214;12.270;2022-08-21T06:12:59;22.60;66.70
49184;DHT22;35021;49.214;12.270;2022-08-21T06:15:27;22.60;66.70
49184;DHT22;35021;49.214;12.270;2022-08-21T06:17:54;22.60;66.70
49184;DHT22;35021;49.214;12.270;2022-08-21T06:20:21;22.60;66.70
49184;DHT22;35021;49.214;12.270;2022-08-21T06:22:48;22.60;66.70
49184;DHT22;35021;49.214;12.270;2022-08-21T06:25:15;22.60;66.60
49184;DHT22;35021;49.214;12.270;2022-08-21T06:27:42;22.60;66.60
49184;DHT22;35021;49.214;12.270;2022-08-21T06:30:09;22.60;66.60
49184;DHT22;35021;49.214;12.270;2022-08-21T06:32:36;22.60;66.60
49184;DHT22;35021;49.214;12.270;2022-08-21T06:35:05;22.60;67.30
49184;DHT22;35021;49.214;12.270;2022-08-21T06:37:32;22.60;66.60
49184;DHT22;35021;49.214;12.270;2022-08-21T06:39:59;22.60;66.60
49184;DHT22;35021;49.214;12.270;2022-08-21T06:42:26;22.70;66.60
49184;DHT22;35021;49.214;12.270;2022-08-21T06:44:54;22.70;66.60
49184;DHT22;35021;49.214;12.270;2022-08-21T06:47:23;22.70;66.50
49184;DHT22;35021;49.214;12.270;2022-08-21T06:49:49;22.60;66.40
49184;DHT22;35021;49.214;12.270;2022-08-21T06:52:16;22.70;66.40
49184;DHT22;35021;49.214;12.270;2022-08-21T06:54:43;22.70;66.50
49184;DHT22;35021;49.214;12.270;2022-08-21T06:57:10;22.70;66.40
49184;DHT22;35021;49.214;12.270;2022-08-21T06:59:37;22.60;66.50
49184;DHT22;35021;49.214;12.270;2022-08-21T07:02:04;22.60;66.50
49184;DHT22;35021;49.214;12.270;2022-08-21T07:04:31;22.60;66.50
49184;DHT22;35021;49.214;12.270;2022-08-21T07:06:57;22.60;66.60
49184;DHT22;35021;49.214;12.270;2022-08-21T07:09:24;22.60;66.60
49184;DHT22;35021;49.214;12.270;2022-08-21T07:11:53;22.60;66.60
49184;DHT22;35021;49.214;12.270;2022-08-21T07:14:21;22.60;66.70
49184;DHT22;35021;49.214;12.270;2022-08-21T07:16:49;22.60;66.70
49184;DHT22;35021;49.214;12.270;2022-08-21T07:19:17;22.60;66.60
49184;DHT22;35021;49.214;12.270;2022-08-21T07:21:45;22.60;66.60
49184;DHT22;35021;49.214;12.270;2022-08-21T07:24:12;22.60;66.60
49184;DHT22;35021;49.214;12.270;2022-08-21T07:26:39;22.60;66.60
49184;DHT22;35021;49.214;12.270;2022-08-21T07:29:06;22.60;66.60
49184;DHT22;35021;49.214;12.270;2022-08-21T07:31:33;22.60;66.60
49184;DHT22;35021;49.214;12.270;2022-08-21T07:34:00;22.60;66.60
49184;DHT22;35021;49.214;12.270;2022-08-21T07:36:27;22.60;66.60
49184;DHT22;35021;49.214;12.270;2022-08-21T07:38:54;22.60;66.60
49184;DHT22;35021;49.214;12.270;2022-08-21T07:41:24;22.60;66.60
49184;DHT22;35021;49.214;12.270;2022-08-21T07:43:52;22.60;66.60
49184;DHT22;35021;49.214;12.270;2022-08-21T07:46:19;22.60;66.60
49184;DHT22;35021;49.214;12.270;2022-08-21T07:48:46;22.60;66.50
49184;DHT22;35021;49.214;12.270;2022-08-21T07:51:15;22.60;66.50
49184;DHT22;35021;49.214;12.270;2022-08-21T07:53:48;22.60;66.60
49184;DHT22;35021;49.214;12.270;2022-08-21T07:56:16;22.60;66.50
49184;DHT22;35021;49.214;12.270;2022-08-21T07:58:43;22.60;66.50
49184;DHT22;35021;49.214;12.270;2022-08-21T08:01:10;22.60;66.50
49184;DHT22;35021;49.214;12.270;2022-08-21T08:03:37;22.70;66.50
49184;DHT22;35021;49.214;12.270;2022-08-21T08:06:06;22.70;66.50
49184;DHT22;35021;49.214;12.270;2022-08-21T08:08:35;22.70;66.40
49184;DHT22;35021;49.214;12.270;2022-08-21T08:11:01;22.70;66.50
49184;DHT22;35021;49.214;12.270;2022-08-21T08:13:28;22.70;66.50
49184;DHT22;35021;49.214;12.270;2022-08-21T08:15:55;22.70;66.40
49184;DHT22;35021;49.214;12.270;2022-08-21T08:18:22;22.70;66.40
49184;DHT22;35021;49.214;12.270;2022-08-21T08:20:49;22.60;66.40
49184;DHT22;35021;49.214;12.270;2022-08-21T08:23:16;22.60;66.40
49184;DHT22;35021;49.214;12.270;2022-08-21T08:25:43;22.60;66.50
49184;DHT22;35021;49.214;12.270;2022-08-21T08:28:10;22.60;66.60
49184;DHT22;35021;49.214;12.270;2022-08-21T08:30:46;22.50;66.70
49184;DHT22;35021;49.214;12.270;2022-08-21T08:33:14;22.50;66.80
49184;DHT22;35021;49.214;12.270;2022-08-21T08:35:46;22.50;66.80
49184;DHT22;35021;49.214;12.270;2022-08-21T08:38:15;22.50;66.90
49184;DHT22;35021;49.214;12.270;2022-08-21T08:41:15;22.40;67.10
49184;DHT22;35021;49.214;12.270;2022-08-21T08:43:54;22.30;67.20
49184;DHT22;35021;49.214;12.270;2022-08-21T08:46:44;22.30;67.30
49184;DHT22;35021;49.214;12.270;2022-08-21T08:49:23;22.30;67.30
49184;DHT22;35021;49.214;12.270;2022-08-21T08:52:05;22.30;67.30
49184;DHT22;35021;49.214;12.270;2022-08-21T08:54:38;22.40;67.30
49184;DHT22;35021;49.214;12.270;2022-08-21T08:57:10;22.50;67.00
49184;DHT22;35021;49.214;12.270;2022-08-21T08:59:44;22.60;66.80
49184;DHT22;35021;49.214;12.270;2022-08-21T09:02:13;22.70;66.60
49184;DHT22;35021;49.214;12.270;2022-08-21T09:04:42;22.90;66.20
49184;DHT22;35021;49.214;12.270;2022-08-21T09:07:39;23.00;65.80
49184;DHT22;35021;49.214;12.270;2022-08-21T09:10:32;23.10;65.40
49184;DHT22;35021;49.214;12.270;2022-08-21T09:13:21;23.30;65.10
49184;DHT22;35021;49.214;12.270;2022-08-21T09:19:05;23.50;64.30
49184;DHT22;35021;49.214;12.270;2022-08-21T09:22:01;23.60;64.00
49184;DHT22;35021;49.214;12.270;2022-08-21T09:24:33;23.70;63.90
49184;DHT22;35021;49.214;12.270;2022-08-21T09:29:36;23.80;63.60
49184;DHT22;35021;49.214;12.270;2022-08-21T09:32:10;23.80;63.60
49184;DHT22;35021;49.214;12.270;2022-08-21T09:37:21;23.90;63.80
49184;DHT22;35021;49.214;12.270;2022-08-21T09:39:48;23.80;63.80
49184;DHT22;35021;49.214;12.270;2022-08-21T09:42:23;23.80;63.90
49184;DHT22;35021;49.214;12.270;2022-08-21T09:47:34;23.80;64.20
49184;DHT22;35021;49.214;12.270;2022-08-21T09:50:17;23.80;64.20
49184;DHT22;35021;49.214;12.270;2022-08-21T09:52:48;23.80;64.20
49184;DHT22;35021;49.214;12.270;2022-08-21T09:56:03;23.70;64.10
49184;DHT22;35021;49.214;12.270;2022-08-21T09:58:51;23.70;64.20
49184;DHT22;35021;49.214;12.270;2022-08-21T10:01:24;23.70;65.10
49184;DHT22;35021;49.214;12.270;2022-08-21T10:04:07;23.70;64.50
49184;DHT22;35021;49.214;12.270;2022-08-21T10:06:34;23.70;64.60
49184;DHT22;35021;49.214;12.270;2022-08-21T10:09:13;23.70;64.60
49184;DHT22;35021;49.214;12.270;2022-08-21T10:12:15;23.70;64.70
49184;DHT22;35021;49.214;12.270;2022-08-21T10:17:22;23.70;64.60
49184;DHT22;35021;49.214;12.270;2022-08-21T10:20:07;23.70;64.60
49184;DHT22;35021;49.214;12.270;2022-08-21T10:22:46;23.70;64.50
49184;DHT22;35021;49.214;12.270;2022-08-21T10:25:19;23.70;64.50
49184;DHT22;35021;49.214;12.270;2022-08-21T10:28:05;23.70;64.40
49184;DHT22;35021;49.214;12.270;2022-08-21T10:31:16;23.70;64.30
49184;DHT22;35021;49.214;12.270;2022-08-21T10:34:05;23.70;64.10
49184;DHT22;35021;49.214;12.270;2022-08-21T10:36:46;23.70;64.10
49184;DHT22;35021;49.214;12.270;2022-08-21T10:47:53;23.70;63.90
49184;DHT22;35021;49.214;12.270;2022-08-21T10:58:33;23.70;63.80
49184;DHT22;35021;49.214;12.270;2022-08-21T11:01:21;23.70;63.70
49184;DHT22;35021;49.214;12.270;2022-08-21T11:03:54;23.70;63.80
49184;DHT22;35021;49.214;12.270;2022-08-21T11:06:28;23.70;63.80
49184;DHT22;35021;49.214;12.270;2022-08-21T11:09:13;23.70;63.90
49184;DHT22;35021;49.214;12.270;2022-08-21T11:11:52;23.70;63.90
49184;DHT22;35021;49.214;12.270;2022-08-21T11:15:00;23.70;63.60
49184;DHT22;35021;49.214;12.270;2022-08-21T11:17:49;23.80;63.50
49184;DHT22;35021;49.214;12.270;2022-08-21T11:20:30;23.70;63.40
49184;DHT22;35021;49.214;12.270;2022-08-21T11:23:19;23.70;63.30
49184;DHT22;35021;49.214;12.270;2022-08-21T11:25:53;23.70;63.20
49184;DHT22;35021;49.214;12.270;2022-08-21T11:28:32;23.80;63.30
49184;DHT22;35021;49.214;12.270;2022-08-21T11:33:59;23.70;63.30
49184;DHT22;35021;49.214;12.270;2022-08-21T11:39:08;23.80;63.30
49184;DHT22;35021;49.214;12.270;2022-08-21T11:41:45;23.80;63.30
49184;DHT22;35021;49.214;12.270;2022-08-21T11:45:10;23.80;63.20
49184;DHT22;35021;49.214;12.270;2022-08-21T11:48:04;23.80;63.00
49184;DHT22;35021;49.214;12.270;2022-08-21T11:50:36;23.80;63.10
49184;DHT22;35021;49.214;12.270;2022-08-21T11:53:37;23.80;63.10
49184;DHT22;35021;49.214;12.270;2022-08-21T11:56:15;23.80;63.10
49184;DHT22;35021;49.214;12.270;2022-08-21T11:58:48;23.80;63.20
49184;DHT22;35021;49.214;12.270;2022-08-21T12:01:28;23.80;63.30
49184;DHT22;35021;49.214;12.270;2022-08-21T12:06:39;23.80;63.20
49184;DHT22;35021;49.214;12.270;2022-08-21T12:09:09;23.90;63.30
49184;DHT22;35021;49.214;12.270;2022-08-21T12:14:49;23.90;63.30
49184;DHT22;35021;49.214;12.270;2022-08-21T12:17:24;23.80;63.30
49184;DHT22;35021;49.214;12.270;2022-08-21T12:20:17;23.90;63.30
49184;DHT22;35021;49.214;12.270;2022-08-21T12:22:53;23.90;63.20
49184;DHT22;35021;49.214;12.270;2022-08-21T12:25:22;23.90;63.10
49184;DHT22;35021;49.214;12.270;2022-08-21T12:28:02;23.90;63.00
49184;DHT22;35021;49.214;12.270;2022-08-21T12:30:38;23.90;63.00
49184;DHT22;35021;49.214;12.270;2022-08-21T12:33:26;23.90;63.00
49184;DHT22;35021;49.214;12.270;2022-08-21T12:36:04;23.90;63.00
49184;DHT22;35021;49.214;12.270;2022-08-21T12:38:39;23.90;63.00
49184;DHT22;35021;49.214;12.270;2022-08-21T12:41:16;23.90;62.90
49184;DHT22;35021;49.214;12.270;2022-08-21T12:43:52;23.90;62.90
49184;DHT22;35021;49.214;12.270;2022-08-21T12:46:24;23.90;62.70
49184;DHT22;35021;49.214;12.270;2022-08-21T12:49:08;23.90;62.60
49184;DHT22;35021;49.214;12.270;2022-08-21T12:54:31;23.90;62.70
49184;DHT22;35021;49.214;12.270;2022-08-21T12:57:05;23.90;62.60
49184;DHT22;35021;49.214;12.270;2022-08-21T12:59:37;23.90;62.40
49184;DHT22;35021;49.214;12.270;2022-08-21T13:02:16;23.90;62.50
49184;DHT22;35021;49.214;12.270;2022-08-21T13:04:45;23.90;63.10
49184;DHT22;35021;49.214;12.270;2022-08-21T13:07:16;23.90;62.30
49184;DHT22;35021;49.214;12.270;2022-08-21T13:09:48;23.90;62.30
49184;DHT22;35021;49.214;12.270;2022-08-21T13:12:17;24.00;62.20
49184;DHT22;35021;49.214;12.270;2022-08-21T13:14:47;24.00;62.20
49184;DHT22;35021;49.214;12.270;2022-08-21T13:17:18;24.00;62.30
49184;DHT22;35021;49.214;12.270;2022-08-21T13:20:00;24.00;62.10
49184;DHT22;35021;49.214;12.270;2022-08-21T13:22:29;24.00;62.60
49184;DHT22;35021;49.214;12.270;2022-08-21T13:25:02;24.00;61.90
49184;DHT22;35021;49.214;12.270;2022-08-21T13:27:33;24.00;61.70
49184;DHT22;35021;49.214;12.270;2022-08-21T13:30:08;24.10;61.70
49184;DHT22;35021;49.214;12.270;2022-08-21T13:32:39;24.10;61.50
49184;DHT22;35021;49.214;12.270;2022-08-21T13:35:17;24.10;61.40
49184;DHT22;35021;49.214;12.270;2022-08-21T13:37:46;24.10;61.20
49184;DHT22;35021;49.214;12.270;2022-08-21T13:40:32;24.10;61.00
49184;DHT22;35021;49.214;12.270;2022-08-21T13:43:12;24.20;60.90
49184;DHT22;35021;49.214;12.270;2022-08-21T13:45:52;24.20;60.70
49184;DHT22;35021;49.214;12.270;2022-08-21T13:48:20;24.20;60.60
49184;DHT22;35021;49.214;12.270;2022-08-21T13:50:48;24.20;60.30
49184;DHT22;35021;49.214;12.270;2022-08-21T13:53:27;24.20;60.20
49184;DHT22;35021;49.214;12.270;2022-08-21T13:55:55;24.20;60.00
49184;DHT22;35021;49.214;12.270;2022-08-21T13:58:41;24.30;59.90
49184;DHT22;35021;49.214;12.270;2022-08-21T14:01:19;24.20;59.80
49184;DHT22;35021;49.214;12.270;2022-08-21T14:03:49;24.30;59.70
49184;DHT22;35021;49.214;12.270;2022-08-21T14:06:23;24.30;59.50
49184;DHT22;35021;49.214;12.270;2022-08-21T14:08:56;24.30;59.40
49184;DHT22;35021;49.214;12.270;2022-08-21T14:11:25;24.30;59.10
49184;DHT22;35021;49.214;12.270;2022-08-21T14:14:05;24.30;59.00
49184;DHT22;35021;49.214;12.270;2022-08-21T14:16:52;24.30;59.70
49184;DHT22;35021;49.214;12.270;2022-08-21T14:19:21;24.30;58.90
49184;DHT22;35021;49.214;12.270;2022-08-21T14:21:49;24.30;58.90
49184;DHT22;35021;49.214;12.270;2022-08-21T14:27:03;24.30;58.90
49184;DHT22;35021;49.214;12.270;2022-08-21T14:29:39;24.20;58.90
49184;DHT22;35021;49.214;12.270;2022-08-21T14:32:20;24.30;58.90
49184;DHT22;35021;49.214;12.270;2022-08-21T14:34:52;24.30;58.90
49184;DHT22;35021;49.214;12.270;2022-08-21T14:37:21;24.30;58.70
49184;DHT22;35021;49.214;12.270;2022-08-21T14:39:49;24.30;58.50
49184;DHT22;35021;49.214;12.270;2022-08-21T14:42:16;24.30;58.30
49184;DHT22;35021;49.214;12.270;2022-08-21T14:44:43;24.30;58.10
49184;DHT22;35021;49.214;12.270;2022-08-21T14:47:10;24.30;57.90
49184;DHT22;35021;49.214;12.270;2022-08-21T14:49:37;24.30;57.80
49184;DHT22;35021;49.214;12.270;2022-08-21T14:52:04;24.40;57.80
49184;DHT22;35021;49.214;12.270;2022-08-21T14:54:32;24.30;57.60
49184;DHT22;35021;49.214;12.270;2022-08-21T14:57:03;24.40;57.70
49184;DHT22;35021;49.214;12.270;2022-08-21T14:59:31;24.40;57.70
49184;DHT22;35021;49.214;12.270;2022-08-21T15:02:00;24.40;57.50
49184;DHT22;35021;49.214;12.270;2022-08-21T15:04:27;24.40;57.40
49184;DHT22;35021;49.214;12.270;2022-08-21T15:06:54;24.40;57.20
49184;DHT22;35021;49.214;12.270;2022-08-21T15:09:21;24.40;56.90
49184;DHT22;35021;49.214;12.270;2022-08-21T15:11:48;24.40;56.80
49184;DHT22;35021;49.214;12.270;2022-08-21T15:14:21;24.40;56.70
49184;DHT22;35021;49.214;12.270;2022-08-21T15:16:50;24.40;57.40
49184;DHT22;35021;49.214;12.270;2022-08-21T15:19:17;24.40;56.80
49184;DHT22;35021;49.214;12.270;2022-08-21T15:21:44;24.40;56.80
49184;DHT22;35021;49.214;12.270;2022-08-21T15:24:11;24.40;56.90
49184;DHT22;35021;49.214;12.270;2022-08-21T15:26:38;24.40;57.00
49184;DHT22;35021;49.214;12.270;2022-08-21T15:29:06;24.30;57.10
49184;DHT22;35021;49.214;12.270;2022-08-21T15:31:34;24.30;57.10
49184;DHT22;35021;49.214;12.270;2022-08-21T15:34:02;24.30;57.20
49184;DHT22;35021;49.214;12.270;2022-08-21T15:36:29;24.30;57.30
49184;DHT22;35021;49.214;12.270;2022-08-21T15:38:56;24.30;57.30
49184;DHT22;35021;49.214;12.270;2022-08-21T15:41:22;24.20;57.20
49184;DHT22;35021;49.214;12.270;2022-08-21T15:43:51;24.30;57.10
49184;DHT22;35021;49.214;12.270;2022-08-21T15:46:20;24.30;56.90
49184;DHT22;35021;49.214;12.270;2022-08-21T15:48:47;24.30;56.80
49184;DHT22;35021;49.214;12.270;2022-08-21T15:51:16;24.30;56.80
49184;DHT22;35021;49.214;12.270;2022-08-21T15:53:44;24.30;56.80
49184;DHT22;35021;49.214;12.270;2022-08-21T15:58:43;24.30;56.80
49184;DHT22;35021;49.214;12.270;2022-08-21T16:01:10;24.30;56.80
49184;DHT22;35021;49.214;12.270;2022-08-21T16:03:38;24.30;56.80
49184;DHT22;35021;49.214;12.270;2022-08-21T16:06:05;24.30;56.70
49184;DHT22;35021;49.214;12.270;2022-08-21T16:08:32;24.30;56.60
49184;DHT22;35021;49.214;12.270;2022-08-21T16:10:59;24.30;56.70
49184;DHT22;35021;49.214;12.270;2022-08-21T16:13:30;24.40;56.70
49184;DHT22;35021;49.214;12.270;2022-08-21T16:16:00;24.40;56.60
49184;DHT22;35021;49.214;12.270;2022-08-21T16:18:27;24.40;56.50
49184;DHT22;35021;49.214;12.270;2022-08-21T16:20:54;24.40;57.20
49184;DHT22;35021;49.214;12.270;2022-08-21T16:23:21;24.40;56.60
49184;DHT22;35021;49.214;12.270;2022-08-21T16:25:48;24.40;56.60
49184;DHT22;35021;49.214;12.270;2022-08-21T16:28:17;24.30;56.60
49184;DHT22;35021;49.214;12.270;2022-08-21T16:30:47;24.30;56.70
49184;DHT22;35021;49.214;12.270;2022-08-21T16:33:34;24.30;56.70
49184;DHT22;35021;49.214;12.270;2022-08-21T16:36:03;24.30;56.80